createdAt,value
2023-05-22T00:01:46.851Z,99237.00
2023-05-22T00:04:21.274Z,99237.20
2023-05-22T00:06:49.561Z,99241.40
2023-05-22T00:09:17.615Z,99235.80
2023-05-22T00:11:45.479Z,99237.40
2023-05-22T00:14:16.237Z,99234.60
2023-05-22T00:16:44.598Z,99234.00
2023-05-22T00:19:16.582Z,99229.60
2023-05-22T00:21:44.816Z,99227.40
2023-05-22T00:24:12.774Z,99230.60
2023-05-22T00:26:40.574Z,99231.80
2023-05-22T00:29:08.453Z,99230.20
2023-05-22T00:31:36.151Z,99231.80
2023-05-22T00:34:03.848Z,99227.20
2023-05-22T00:36:31.613Z,99224.60
2023-05-22T00:38:59.332Z,99219.20
2023-05-22T00:41:27.307Z,99216.60
2023-05-22T00:43:54.955Z,99216.80
2023-05-22T00:46:22.978Z,99213.60
2023-05-22T00:48:52.668Z,99215.40
2023-05-22T00:51:22.399Z,99209.00
2023-05-22T00:53:52.107Z,99208.40
2023-05-22T00:56:21.849Z,99205.40
2023-05-22T00:58:50.758Z,99206.80
2023-05-22T01:01:18.866Z,99196.00
2023-05-22T01:03:46.974Z,99201.40
2023-05-22T01:06:18.590Z,99202.80
2023-05-22T01:08:46.311Z,99210.20
2023-05-22T01:11:31.096Z,99204.20
2023-05-22T01:14:17.473Z,99208.40
2023-05-22T01:16:54.881Z,99211.00
2023-05-22T01:20:07.421Z,99209.60
2023-05-22T01:22:58.402Z,99209.00
2023-05-22T01:25:53.040Z,99206.80
2023-05-22T01:29:03.835Z,99209.00
2023-05-22T01:31:36.761Z,99207.80
2023-05-22T01:34:07.328Z,99205.60
2023-05-22T01:36:38.304Z,99204.40
2023-05-22T01:39:07.861Z,99205.40
2023-05-22T01:41:36.474Z,99204.80
2023-05-22T01:44:04.327Z,99201.80
2023-05-22T01:46:32.398Z,99203.80
2023-05-22T01:49:00.609Z,99208.00
2023-05-22T01:51:43.328Z,99207.00
2023-05-22T01:54:24.135Z,99207.80
2023-05-22T01:57:02.761Z,99203.80
2023-05-22T01:59:56.984Z,99208.60
2023-05-22T02:02:27.655Z,99206.40
2023-05-22T02:05:01.662Z,99203.60
2023-05-22T02:07:33.424Z,99199.40
2023-05-22T02:10:02.984Z,99197.00
2023-05-22T02:12:31.049Z,99202.20
2023-05-22T02:14:58.861Z,99201.80
2023-05-22T02:17:27.192Z,99203.60
2023-05-22T02:19:54.918Z,99209.20
2023-05-22T02:22:22.604Z,99204.20
2023-05-22T02:24:50.394Z,99203.80
2023-05-22T02:27:18.183Z,99196.00
2023-05-22T02:29:46.674Z,99195.80
2023-05-22T02:32:14.315Z,99190.60
2023-05-22T02:34:42.080Z,99189.00
2023-05-22T02:37:09.776Z,99181.20
2023-05-22T02:39:37.418Z,99183.20
2023-05-22T02:42:05.735Z,99179.60
2023-05-22T02:44:33.431Z,99182.60
2023-05-22T02:47:01.213Z,99177.20
2023-05-22T02:49:28.864Z,99178.40
2023-05-22T02:51:56.639Z,99177.00
2023-05-22T02:54:24.287Z,99178.00
2023-05-22T02:56:51.968Z,99176.60
2023-05-22T02:59:19.714Z,99177.40
2023-05-22T03:01:48.467Z,99176.20
2023-05-22T03:04:16.574Z,99177.80
2023-05-22T03:06:46.304Z,99178.00
2023-05-22T03:09:14.228Z,99183.60
2023-05-22T03:11:42.562Z,99181.00
2023-05-22T03:14:10.328Z,99177.80
2023-05-22T03:16:38.029Z,99185.60
2023-05-22T03:19:14.836Z,99179.80
2023-05-22T03:21:45.884Z,99187.00
2023-05-22T03:24:13.588Z,99183.20
2023-05-22T03:26:42.075Z,99190.00
2023-05-22T03:29:10.070Z,99185.00
2023-05-22T03:31:37.879Z,99186.80
2023-05-22T03:34:06.198Z,99189.20
2023-05-22T03:36:36.663Z,99192.00
2023-05-22T03:39:05.255Z,99188.60
2023-05-22T03:41:33.019Z,99190.80
2023-05-22T03:44:00.800Z,99192.20
2023-05-22T03:46:28.577Z,99195.60
2023-05-22T03:48:56.361Z,99187.40
2023-05-22T03:51:23.994Z,99185.20
2023-05-22T03:53:51.870Z,99185.60
2023-05-22T03:56:19.601Z,99184.60
2023-05-22T03:58:47.260Z,99184.40
2023-05-22T04:01:16.903Z,99189.00
2023-05-22T04:03:44.727Z,99184.80
2023-05-22T04:06:13.804Z,99189.20
2023-05-22T04:08:41.595Z,99191.80
2023-05-22T04:11:09.250Z,99194.80
2023-05-22T04:13:36.899Z,99193.40
2023-05-22T04:16:04.969Z,99192.80
2023-05-22T04:18:32.708Z,99183.40
2023-05-22T04:21:00.907Z,99190.00
2023-05-22T04:23:28.904Z,99183.00
2023-05-22T04:25:58.268Z,99183.60
2023-05-22T04:28:26.985Z,99185.80
2023-05-22T04:30:55.338Z,99187.00
2023-05-22T04:33:24.673Z,99188.40
2023-05-22T04:35:52.444Z,99182.20
2023-05-22T04:38:20.537Z,99180.40
2023-05-22T04:40:48.439Z,99185.20
2023-05-22T04:43:18.757Z,99181.00
2023-05-22T04:45:46.892Z,99177.20
2023-05-22T04:48:15.403Z,99183.40
2023-05-22T04:50:47.412Z,99183.00
2023-05-22T04:53:15.212Z,99181.80
2023-05-22T04:55:43.082Z,99180.40
2023-05-22T04:58:10.750Z,99175.40
2023-05-22T05:00:38.800Z,99177.80
2023-05-22T05:03:08.369Z,99173.60
2023-05-22T05:05:36.348Z,99168.80
2023-05-22T05:08:04.207Z,99171.40
2023-05-22T05:10:31.958Z,99173.40
2023-05-22T05:12:59.692Z,99173.40
2023-05-22T05:15:29.071Z,99173.60
2023-05-22T05:17:56.750Z,99172.40
2023-05-22T05:20:24.877Z,99172.80
2023-05-22T05:22:52.730Z,99176.80
2023-05-22T05:25:20.454Z,99179.80
2023-05-22T05:27:48.372Z,99177.80
2023-05-22T05:30:17.652Z,99176.80
2023-05-22T05:32:47.426Z,99171.20
2023-05-22T05:35:15.247Z,99169.20
2023-05-22T05:37:43.530Z,99171.20
2023-05-22T05:40:13.122Z,99166.40
2023-05-22T05:42:40.840Z,99169.60
2023-05-22T05:45:09.749Z,99174.20
2023-05-22T05:47:37.466Z,99178.60
2023-05-22T05:50:06.298Z,99178.00
2023-05-22T05:52:34.251Z,99174.40
2023-05-22T05:55:01.968Z,99177.80
2023-05-22T05:57:31.044Z,99179.20
2023-05-22T05:59:58.774Z,99170.80
2023-05-22T06:02:26.538Z,99171.20
2023-05-22T06:04:56.044Z,99176.40
2023-05-22T06:07:24.416Z,99176.80
2023-05-22T06:09:52.697Z,99173.60
2023-05-22T06:12:20.356Z,99169.80
2023-05-22T06:14:48.060Z,99168.00
2023-05-22T06:17:16.810Z,99170.00
2023-05-22T06:19:44.705Z,99165.80
2023-05-22T06:22:12.413Z,99167.40
2023-05-22T06:24:40.136Z,99165.20
2023-05-22T06:27:08.033Z,99162.00
2023-05-22T06:29:35.784Z,99158.40
2023-05-22T06:32:03.671Z,99154.20
2023-05-22T06:34:31.732Z,99150.60
2023-05-22T06:36:59.474Z,99151.00
2023-05-22T06:39:27.140Z,99150.80
2023-05-22T06:41:54.922Z,99154.80
2023-05-22T06:44:22.590Z,99150.00
2023-05-22T06:46:50.297Z,99155.60
2023-05-22T06:49:19.552Z,99153.20
2023-05-22T06:51:47.440Z,99147.20
2023-05-22T06:54:15.395Z,99146.60
2023-05-22T06:56:43.715Z,99147.60
2023-05-22T06:59:14.422Z,99147.20
2023-05-22T07:01:42.157Z,99151.40
2023-05-22T07:04:11.897Z,99148.20
2023-05-22T07:06:41.837Z,99143.40
2023-05-22T07:09:11.346Z,99150.40
2023-05-22T07:11:39.174Z,99142.00
2023-05-22T07:14:07.901Z,99142.60
2023-05-22T07:16:37.067Z,99140.40
2023-05-22T07:19:05.026Z,99140.80
2023-05-22T07:21:35.185Z,99134.20
2023-05-22T07:24:08.278Z,99135.80
2023-05-22T07:26:37.583Z,99134.20
2023-05-22T07:29:05.491Z,99142.00
2023-05-22T07:31:34.463Z,99139.80
2023-05-22T07:34:02.356Z,99134.00
2023-05-22T07:36:30.212Z,99130.40
2023-05-22T07:38:58.237Z,99134.20
2023-05-22T07:41:27.455Z,99134.80
2023-05-22T07:43:55.315Z,99124.60
2023-05-22T07:46:23.150Z,99120.20
2023-05-22T07:48:50.879Z,99123.40
2023-05-22T07:51:18.672Z,99113.20
2023-05-22T07:53:46.911Z,99116.00
2023-05-22T07:56:14.661Z,99121.00
2023-05-22T07:58:42.446Z,99121.60
2023-05-22T08:01:10.172Z,99119.00
2023-05-22T08:03:38.010Z,99116.60
2023-05-22T08:06:06.903Z,99110.20
2023-05-22T08:08:34.797Z,99110.80
2023-05-22T08:11:04.755Z,99107.20
2023-05-22T08:13:32.761Z,99105.60
2023-05-22T08:16:01.550Z,99107.40
2023-05-22T08:18:29.944Z,99112.00
2023-05-22T08:20:59.745Z,99117.60
2023-05-22T08:23:27.652Z,99116.20
2023-05-22T08:25:56.744Z,99113.40
2023-05-22T08:28:24.619Z,99115.60
2023-05-22T08:30:52.473Z,99115.00
2023-05-22T08:33:20.253Z,99112.00
2023-05-22T08:35:48.014Z,99111.20
2023-05-22T08:38:16.320Z,99113.60
2023-05-22T08:40:49.874Z,99109.80
2023-05-22T08:43:21.415Z,99113.00
2023-05-22T08:46:09.820Z,99110.80
2023-05-22T08:48:38.369Z,99116.00
2023-05-22T08:51:07.644Z,99108.20
2023-05-22T08:53:37.054Z,99111.00
2023-05-22T08:56:08.441Z,99112.80
2023-05-22T08:58:38.257Z,99103.60
2023-05-22T09:01:07.412Z,99102.40
2023-05-22T09:03:36.941Z,99098.40
2023-05-22T09:06:10.467Z,99102.20
2023-05-22T09:08:39.297Z,99096.40
2023-05-22T09:11:07.005Z,99107.80
2023-05-22T09:13:34.660Z,99098.20
2023-05-22T09:16:11.695Z,99105.60
2023-05-22T09:18:41.269Z,99104.40
2023-05-22T09:21:25.713Z,99090.20
2023-05-22T09:24:01.743Z,99090.20
2023-05-22T09:26:30.371Z,99087.20
2023-05-22T09:29:00.798Z,99091.20
2023-05-22T09:31:29.616Z,99097.20
2023-05-22T09:33:59.070Z,99095.00
2023-05-22T09:36:33.855Z,99097.80
2023-05-22T09:39:04.166Z,99085.40
2023-05-22T09:41:38.689Z,99083.80
2023-05-22T09:44:14.272Z,99075.20
2023-05-22T09:46:47.446Z,99079.00
2023-05-22T09:49:17.219Z,99080.80
2023-05-22T09:51:49.548Z,99083.60
2023-05-22T09:54:20.245Z,99078.00
2023-05-22T09:56:50.671Z,99080.40
2023-05-22T09:59:27.107Z,99076.60
2023-05-22T10:01:55.172Z,99079.20
2023-05-22T10:04:23.992Z,99080.00
2023-05-22T10:06:57.595Z,99070.40
2023-05-22T10:09:32.776Z,99071.80
2023-05-22T10:12:08.259Z,99066.60
2023-05-22T10:14:36.725Z,99053.40
2023-05-22T10:17:06.958Z,99063.00
2023-05-22T10:19:39.688Z,99061.00
2023-05-22T10:22:14.968Z,99064.20
2023-05-22T10:24:43.292Z,99057.60
2023-05-22T10:27:11.083Z,99059.40
2023-05-22T10:29:56.685Z,99067.60
2023-05-22T10:32:38.993Z,99064.00
2023-05-22T10:35:36.327Z,99061.40
2023-05-22T10:38:39.933Z,99061.40
2023-05-22T10:41:09.716Z,99057.60
2023-05-22T10:43:44.244Z,99064.80
2023-05-22T10:46:13.291Z,99053.40
2023-05-22T10:48:45.746Z,99054.00
2023-05-22T10:51:18.110Z,99051.80
2023-05-22T10:53:53.231Z,99051.20
2023-05-22T10:56:24.464Z,99042.60
2023-05-22T10:59:08.423Z,99050.40
2023-05-22T11:01:38.345Z,99057.20
2023-05-22T11:04:11.943Z,99049.40
2023-05-22T11:06:50.070Z,99052.20
2023-05-22T11:09:29.616Z,99053.80
2023-05-22T11:12:24.489Z,99052.40
2023-05-22T11:14:58.959Z,99059.40
2023-05-22T11:17:30.105Z,99053.60
2023-05-22T11:20:24.344Z,99055.20
2023-05-22T11:23:05.729Z,99051.00
2023-05-22T11:25:36.666Z,99050.80
2023-05-22T11:28:06.545Z,99061.40
2023-05-22T11:30:35.294Z,99057.20
2023-05-22T11:33:03.249Z,99056.60
2023-05-22T11:35:31.916Z,99052.20
2023-05-22T11:38:03.648Z,99039.20
2023-05-22T11:40:31.483Z,99037.20
2023-05-22T11:42:59.360Z,99041.00
2023-05-22T11:45:27.417Z,99039.00
2023-05-22T11:47:56.053Z,99037.00
2023-05-22T11:50:40.263Z,99031.80
2023-05-22T11:53:08.708Z,99043.20
2023-05-22T11:55:36.414Z,99043.40
2023-05-22T11:58:04.173Z,99039.80
2023-05-22T12:00:32.576Z,99042.60
2023-05-22T12:03:01.072Z,99039.60
2023-05-22T12:05:32.260Z,99036.40
2023-05-22T12:08:00.194Z,99037.20
2023-05-22T12:10:29.204Z,99045.80
2023-05-22T12:12:57.022Z,99039.00
2023-05-22T12:15:25.476Z,99035.60
2023-05-22T12:17:56.460Z,99027.00
2023-05-22T12:20:31.040Z,99030.60
2023-05-22T12:22:59.763Z,99026.00
2023-05-22T12:25:37.322Z,99027.80
2023-05-22T12:28:08.185Z,99023.00
2023-05-22T12:30:42.990Z,99022.80
2023-05-22T12:33:17.351Z,99020.40
2023-05-22T12:35:45.114Z,99019.60
2023-05-22T12:38:13.684Z,99016.80
2023-05-22T12:40:41.568Z,99013.80
2023-05-22T12:43:09.587Z,99012.00
2023-05-22T12:45:37.286Z,99011.20
2023-05-22T12:48:07.752Z,99010.80
2023-05-22T12:50:36.209Z,99002.40
2023-05-22T12:53:04.009Z,99007.00
2023-05-22T12:55:33.149Z,99010.60
2023-05-22T12:58:01.349Z,99007.80
2023-05-22T13:00:29.225Z,99000.80
2023-05-22T13:02:57.409Z,98994.80
2023-05-22T13:05:25.612Z,99002.00
2023-05-22T13:07:53.423Z,98999.40
2023-05-22T13:10:21.474Z,99005.20
2023-05-22T13:12:51.295Z,99001.60
2023-05-22T13:15:19.173Z,98998.60
2023-05-22T13:17:46.953Z,98995.00
2023-05-22T13:20:14.958Z,98995.20
2023-05-22T13:22:42.794Z,98996.80
2023-05-22T13:25:10.634Z,99003.40
2023-05-22T13:27:38.309Z,98995.60
2023-05-22T13:30:07.179Z,98994.00
2023-05-22T13:32:35.341Z,98994.20
2023-05-22T13:35:03.143Z,98994.80
2023-05-22T13:37:31.186Z,98998.60
2023-05-22T13:39:59.018Z,99004.00
2023-05-22T13:42:26.748Z,98995.40
2023-05-22T13:44:54.639Z,98990.40
2023-05-22T13:47:23.282Z,98995.60
2023-05-22T13:49:51.574Z,98986.40
2023-05-22T13:52:19.328Z,98987.00
2023-05-22T13:54:47.175Z,98982.80
2023-05-22T13:57:14.880Z,98981.80
2023-05-22T13:59:42.634Z,98976.60
2023-05-22T14:02:10.872Z,98973.40
2023-05-22T14:04:38.721Z,98972.20
2023-05-22T14:07:06.622Z,98968.40
2023-05-22T14:09:34.295Z,98972.00
2023-05-22T14:12:02.800Z,98965.40
2023-05-22T14:14:30.538Z,98968.00
2023-05-22T14:16:59.978Z,98961.40
2023-05-22T14:19:28.854Z,98952.60
2023-05-22T14:21:56.617Z,98957.60
2023-05-22T14:24:24.389Z,98951.20
2023-05-22T14:26:53.047Z,98952.00
2023-05-22T14:29:21.074Z,98953.00
2023-05-22T14:31:51.843Z,98950.20
2023-05-22T14:34:20.047Z,98943.00
2023-05-22T14:36:48.360Z,98942.00
2023-05-22T14:39:16.481Z,98945.20
2023-05-22T14:41:44.280Z,98947.20
2023-05-22T14:44:12.010Z,98942.00
2023-05-22T14:46:39.799Z,98944.80
2023-05-22T14:49:07.598Z,98939.40
2023-05-22T14:51:35.418Z,98933.20
2023-05-22T14:54:04.826Z,98935.40
2023-05-22T14:56:32.512Z,98930.40
2023-05-22T14:59:00.565Z,98929.20
2023-05-22T15:01:28.369Z,98930.60
2023-05-22T15:03:56.086Z,98930.20
2023-05-22T15:06:23.726Z,98927.20
2023-05-22T15:08:51.544Z,98925.20
2023-05-22T15:11:19.310Z,98926.40
2023-05-22T15:13:47.028Z,98922.20
2023-05-22T15:16:14.746Z,98923.20
2023-05-22T15:18:42.523Z,98923.80
2023-05-22T15:21:10.691Z,98910.40
2023-05-22T15:23:38.333Z,98909.60
2023-05-22T15:26:06.934Z,98905.00
2023-05-22T15:28:34.797Z,98911.00
2023-05-22T15:31:02.497Z,98900.80
2023-05-22T15:33:30.349Z,98909.60
2023-05-22T15:35:57.962Z,98895.80
2023-05-22T15:38:25.699Z,98903.40
2023-05-22T15:40:53.640Z,98901.40
2023-05-22T15:43:21.380Z,98899.00
2023-05-22T15:45:49.411Z,98893.40
2023-05-22T15:48:17.253Z,98887.00
2023-05-22T15:50:45.175Z,98890.60
2023-05-22T15:53:12.872Z,98886.40
2023-05-22T15:55:40.783Z,98886.60
2023-05-22T15:58:08.799Z,98884.00
2023-05-22T16:00:41.164Z,98890.00
2023-05-22T16:03:10.186Z,98889.20
2023-05-22T16:05:40.351Z,98885.80
2023-05-22T16:08:11.447Z,98889.20
2023-05-22T16:10:41.572Z,98888.40
2023-05-22T16:13:12.246Z,98891.00
2023-05-22T16:15:41.411Z,98890.00
2023-05-22T16:18:11.180Z,98887.40
2023-05-22T16:20:39.012Z,98890.80
2023-05-22T16:23:06.717Z,98889.20
2023-05-22T16:25:34.433Z,98888.20
2023-05-22T16:28:02.239Z,98894.60
2023-05-22T16:30:30.085Z,98892.40
2023-05-22T16:32:57.857Z,98891.80
2023-05-22T16:35:25.951Z,98897.60
2023-05-22T16:37:53.962Z,98900.40
2023-05-22T16:40:21.767Z,98894.20
2023-05-22T16:42:50.767Z,98901.20
2023-05-22T16:45:18.460Z,98899.20
2023-05-22T16:47:46.265Z,98898.00
2023-05-22T16:50:13.962Z,98894.60
2023-05-22T16:52:41.736Z,98898.80
2023-05-22T16:55:09.717Z,98898.80
2023-05-22T16:57:38.773Z,98905.20
2023-05-22T17:00:10.811Z,98900.80
2023-05-22T17:02:38.823Z,98901.00
2023-05-22T17:05:07.589Z,98899.20
2023-05-22T17:07:35.340Z,98898.60
2023-05-22T17:10:03.106Z,98898.80
2023-05-22T17:12:31.043Z,98901.20
2023-05-22T17:14:58.750Z,98905.40
2023-05-22T17:17:27.761Z,98906.00
2023-05-22T17:19:55.598Z,98912.80
2023-05-22T17:22:23.272Z,98915.60
2023-05-22T17:24:51.034Z,98911.00
2023-05-22T17:27:34.365Z,98913.20
2023-05-22T17:30:03.406Z,98914.20
2023-05-22T17:32:31.196Z,98911.00
2023-05-22T17:35:00.053Z,98910.80
2023-05-22T17:37:28.139Z,98907.80
2023-05-22T17:39:55.902Z,98907.80
2023-05-22T17:42:23.690Z,98912.20
2023-05-22T17:44:51.719Z,98912.00
2023-05-22T17:47:19.429Z,98910.80
2023-05-22T17:49:47.133Z,98909.00
2023-05-22T17:52:14.984Z,98911.80
2023-05-22T17:54:42.754Z,98911.40
2023-05-22T17:57:10.577Z,98911.20
2023-05-22T17:59:40.322Z,98904.40
2023-05-22T18:02:09.448Z,98905.20
2023-05-22T18:04:37.155Z,98905.20
2023-05-22T18:07:05.377Z,98900.00
2023-05-22T18:09:33.015Z,98905.20
2023-05-22T18:12:02.407Z,98903.80
2023-05-22T18:14:30.154Z,98902.60
2023-05-22T18:16:58.331Z,98904.00
2023-05-22T18:19:26.115Z,98906.60
2023-05-22T18:21:54.077Z,98905.40
2023-05-22T18:24:27.717Z,98901.20
2023-05-22T18:26:55.836Z,98901.80
2023-05-22T18:29:23.491Z,98905.00
2023-05-22T18:31:51.241Z,98908.00
2023-05-22T18:34:19.727Z,98912.20
2023-05-22T18:36:49.363Z,98906.00
2023-05-22T18:39:17.094Z,98906.80
2023-05-22T18:41:44.765Z,98911.20
2023-05-22T18:44:12.454Z,98909.60
2023-05-22T18:46:40.229Z,98913.80
2023-05-22T18:49:08.024Z,98911.80
2023-05-22T18:51:37.105Z,98917.00
2023-05-22T18:54:04.838Z,98918.00
2023-05-22T18:56:32.580Z,98910.20
2023-05-22T18:59:00.303Z,98912.40
2023-05-22T19:01:28.795Z,98919.20
2023-05-22T19:03:56.871Z,98918.00
2023-05-22T19:06:26.263Z,98921.40
2023-05-22T19:08:54.014Z,98920.00
2023-05-22T19:11:21.672Z,98918.40
2023-05-22T19:13:49.360Z,98916.80
2023-05-22T19:16:17.452Z,98913.40
2023-05-22T19:18:46.508Z,98917.20
2023-05-22T19:21:14.191Z,98911.00
2023-05-22T19:23:42.765Z,98918.00
2023-05-22T19:26:10.743Z,98914.60
2023-05-22T19:28:40.406Z,98919.00
2023-05-22T19:31:09.833Z,98917.60
2023-05-22T19:33:37.586Z,98916.80
2023-05-22T19:36:06.780Z,98914.40
2023-05-22T19:38:35.916Z,98919.20
2023-05-22T19:41:04.053Z,98911.80
2023-05-22T19:43:32.006Z,98920.80
2023-05-22T19:46:00.315Z,98923.20
2023-05-22T19:48:29.928Z,98921.60
2023-05-22T19:50:59.055Z,98921.60
2023-05-22T19:53:26.776Z,98924.80
2023-05-22T19:55:54.500Z,98922.60
2023-05-22T19:58:22.186Z,98921.20
2023-05-22T20:00:49.910Z,98925.20
2023-05-22T20:03:20.451Z,98925.00
2023-05-22T20:05:55.625Z,98926.20
2023-05-22T20:08:25.471Z,98926.80
2023-05-22T20:10:53.534Z,98920.60
2023-05-22T20:13:21.284Z,98917.20
2023-05-22T20:15:51.205Z,98916.20
2023-05-22T20:18:20.819Z,98915.40
2023-05-22T20:20:48.641Z,98914.80
2023-05-22T20:23:17.408Z,98917.40
2023-05-22T20:25:45.233Z,98916.20
2023-05-22T20:28:12.961Z,98911.80
2023-05-22T20:30:40.886Z,98911.00
2023-05-22T20:33:08.761Z,98910.00
2023-05-22T20:35:37.249Z,98910.20
2023-05-22T20:38:08.676Z,98906.80
2023-05-22T20:40:42.343Z,98904.80
2023-05-22T20:43:13.857Z,98900.60
2023-05-22T20:45:45.780Z,98898.40
2023-05-22T20:48:14.234Z,98896.00
2023-05-22T20:50:42.335Z,98899.00
2023-05-22T20:53:10.133Z,98898.40
2023-05-22T20:55:37.863Z,98899.40
2023-05-22T20:58:05.846Z,98903.80
2023-05-22T21:00:34.959Z,98899.40
2023-05-22T21:03:02.789Z,98895.20
2023-05-22T21:05:30.902Z,98903.20
2023-05-22T21:07:58.624Z,98902.20
2023-05-22T21:10:26.496Z,98904.60
2023-05-22T21:12:54.163Z,98905.60
2023-05-22T21:15:21.962Z,98908.80
2023-05-22T21:17:49.788Z,98908.60
2023-05-22T21:20:17.615Z,98907.00
2023-05-22T21:22:47.720Z,98907.60
2023-05-22T21:25:15.624Z,98905.80
2023-05-22T21:27:43.305Z,98905.40
2023-05-22T21:30:13.197Z,98904.00
2023-05-22T21:32:41.141Z,98903.20
2023-05-22T21:35:09.773Z,98904.20
2023-05-22T21:37:37.737Z,98908.40
2023-05-22T21:40:07.786Z,98911.80
2023-05-22T21:42:46.614Z,98906.80
2023-05-22T21:45:15.244Z,98905.20
2023-05-22T21:47:43.194Z,98903.80
2023-05-22T21:50:11.733Z,98903.60
2023-05-22T21:52:39.536Z,98910.20
2023-05-22T21:55:07.915Z,98903.40
2023-05-22T21:57:36.543Z,98905.60
2023-05-22T22:00:04.766Z,98907.20
2023-05-22T22:02:32.463Z,98907.80
2023-05-22T22:05:00.509Z,98907.20
2023-05-22T22:07:28.197Z,98906.60
2023-05-22T22:09:55.875Z,98905.40
2023-05-22T22:12:23.691Z,98900.20
2023-05-22T22:14:51.438Z,98895.80
2023-05-22T22:17:23.767Z,98889.60
2023-05-22T22:19:53.683Z,98889.20
2023-05-22T22:22:22.774Z,98888.40
2023-05-22T22:24:50.820Z,98888.40
2023-05-22T22:27:19.823Z,98885.00
2023-05-22T22:29:47.620Z,98883.00
2023-05-22T22:32:15.429Z,98872.80
2023-05-22T22:34:45.933Z,98869.80
2023-05-22T22:37:14.045Z,98871.40
2023-05-22T22:39:41.730Z,98868.20
2023-05-22T22:42:09.341Z,98864.60
2023-05-22T22:44:37.030Z,98866.60
2023-05-22T22:47:04.990Z,98863.60
2023-05-22T22:49:32.956Z,98864.20
2023-05-22T22:52:00.931Z,98862.20
2023-05-22T22:54:28.637Z,98862.60
2023-05-22T22:56:56.452Z,98867.80
2023-05-22T22:59:24.369Z,98867.20
2023-05-22T23:01:52.159Z,98866.80
2023-05-22T23:04:20.131Z,98869.80
2023-05-22T23:06:47.997Z,98866.00
2023-05-22T23:09:15.691Z,98863.40
2023-05-22T23:11:43.454Z,98855.60
2023-05-22T23:14:11.234Z,98857.40
2023-05-22T23:16:43.178Z,98860.00
2023-05-22T23:19:11.860Z,98856.20
2023-05-22T23:21:39.880Z,98850.40
2023-05-22T23:24:07.744Z,98845.00
2023-05-22T23:26:35.546Z,98844.20
2023-05-22T23:29:03.297Z,98839.40
2023-05-22T23:31:31.323Z,98837.40
2023-05-22T23:33:59.121Z,98841.40
2023-05-22T23:36:26.918Z,98837.60
2023-05-22T23:38:54.674Z,98835.00
2023-05-22T23:41:22.309Z,98836.80
2023-05-22T23:43:49.991Z,98831.40
2023-05-22T23:46:21.221Z,98828.60
2023-05-22T23:48:49.128Z,98830.80
2023-05-22T23:51:16.985Z,98826.20
2023-05-22T23:53:45.120Z,98825.60
2023-05-22T23:56:12.877Z,98822.20
2023-05-22T23:58:40.646Z,98823.20
